createdAt,value
2023-04-21T00:00:53.837Z,23.88
2023-04-21T00:03:24.430Z,26.73
2023-04-21T00:05:51.982Z,25.13
2023-04-21T00:08:19.257Z,21.67
2023-04-21T00:10:49.469Z,29.30
2023-04-21T00:13:16.609Z,22.60
2023-04-21T00:15:43.793Z,25.20
2023-04-21T00:18:10.960Z,22.42
2023-04-21T00:20:39.312Z,22.67
2023-04-21T00:23:06.246Z,24.27
2023-04-21T00:25:33.079Z,24.85
2023-04-21T00:27:59.908Z,23.00
2023-04-21T00:30:26.892Z,23.38
2023-04-21T00:32:53.777Z,27.17
2023-04-21T00:35:20.620Z,20.30
2023-04-21T00:37:47.460Z,23.48
2023-04-21T00:40:14.430Z,21.45
2023-04-21T00:42:41.366Z,21.27
2023-04-21T00:45:09.312Z,19.52
2023-04-21T00:47:36.458Z,21.80
2023-04-21T00:50:04.480Z,21.70
2023-04-21T00:52:32.171Z,21.90
2023-04-21T00:55:00.314Z,20.95
2023-04-21T00:57:28.950Z,20.95
2023-04-21T00:59:55.893Z,21.30
2023-04-21T01:02:23.496Z,24.45
2023-04-21T01:04:50.814Z,24.05
2023-04-21T01:07:17.850Z,27.88
2023-04-21T01:09:44.825Z,26.70
2023-04-21T01:12:12.665Z,23.25
2023-04-21T01:14:40.962Z,23.38
2023-04-21T01:17:08.789Z,21.80
2023-04-21T01:19:42.229Z,23.42
2023-04-21T01:22:13.429Z,22.25
2023-04-21T01:24:43.560Z,23.05
2023-04-21T01:27:12.780Z,25.45
2023-04-21T01:29:42.368Z,25.30
2023-04-21T01:32:18.363Z,23.02
2023-04-21T01:34:45.841Z,21.80
2023-04-21T01:37:15.002Z,21.75
2023-04-21T01:39:45.659Z,22.70
2023-04-21T01:42:13.670Z,23.48
2023-04-21T01:44:40.900Z,20.38
2023-04-21T01:47:08.348Z,19.52
2023-04-21T01:49:35.154Z,23.00
2023-04-21T01:52:02.247Z,21.90
2023-04-21T01:54:29.499Z,22.35
2023-04-21T01:56:56.526Z,20.48
2023-04-21T01:59:23.461Z,21.17
2023-04-21T02:01:50.512Z,22.95
2023-04-21T02:04:18.143Z,21.13
2023-04-21T02:06:45.043Z,19.67
2023-04-21T02:09:12.061Z,22.20
2023-04-21T02:11:39.137Z,22.38
2023-04-21T02:14:06.006Z,23.23
2023-04-21T02:16:32.980Z,24.88
2023-04-21T02:18:59.945Z,21.90
2023-04-21T02:21:27.949Z,24.63
2023-04-21T02:23:54.995Z,23.52
2023-04-21T02:26:22.015Z,21.73
2023-04-21T02:28:49.716Z,25.23
2023-04-21T02:31:17.753Z,26.98
2023-04-21T02:33:45.200Z,23.85
2023-04-21T02:36:12.983Z,20.58
2023-04-21T02:38:39.947Z,24.05
2023-04-21T02:41:06.971Z,23.52
2023-04-21T02:43:33.958Z,25.23
2023-04-21T02:46:06.793Z,24.48
2023-04-21T02:48:34.677Z,28.48
2023-04-21T02:51:01.820Z,33.40
2023-04-21T02:53:29.125Z,28.65
2023-04-21T02:55:56.442Z,27.67
2023-04-21T02:58:23.668Z,27.83
2023-04-21T03:00:51.715Z,27.77
2023-04-21T03:03:19.068Z,25.42
2023-04-21T03:05:46.690Z,28.88
2023-04-21T03:08:16.047Z,28.98
2023-04-21T03:10:42.911Z,34.42
2023-04-21T03:13:12.019Z,47.92
2023-04-21T03:15:44.175Z,43.55
2023-04-21T03:18:11.484Z,39.67
2023-04-21T03:20:38.370Z,41.72
2023-04-21T03:23:05.451Z,37.17
2023-04-21T03:25:32.374Z,34.80
2023-04-21T03:27:59.268Z,35.10
2023-04-21T03:30:26.487Z,35.40
2023-04-21T03:32:55.515Z,30.67
2023-04-21T03:35:22.822Z,27.92
2023-04-21T03:37:52.413Z,32.20
2023-04-21T03:40:19.220Z,41.95
2023-04-21T03:42:46.128Z,29.25
2023-04-21T03:45:13.238Z,30.35
2023-04-21T03:47:40.408Z,32.08
2023-04-21T03:50:07.954Z,34.10
2023-04-21T03:52:34.895Z,30.40
2023-04-21T03:55:02.049Z,31.60
2023-04-21T03:57:29.012Z,33.70
2023-04-21T03:59:56.000Z,32.30
2023-04-21T04:02:23.122Z,32.70
2023-04-21T04:04:50.679Z,32.97
2023-04-21T04:07:17.770Z,34.28
2023-04-21T04:09:44.777Z,35.58
2023-04-21T04:12:11.928Z,34.58
2023-04-21T04:14:39.592Z,34.22
2023-04-21T04:17:06.680Z,37.38
2023-04-21T04:19:33.978Z,32.03
2023-04-21T04:22:01.488Z,31.85
2023-04-21T04:24:28.649Z,33.50
2023-04-21T04:26:55.856Z,41.20
2023-04-21T04:29:23.103Z,38.20
2023-04-21T04:31:53.398Z,36.53
2023-04-21T04:34:20.723Z,37.92
2023-04-21T04:36:48.212Z,37.15
2023-04-21T04:39:16.683Z,42.20
2023-04-21T04:41:43.676Z,40.17
2023-04-21T04:44:11.325Z,37.95
2023-04-21T04:46:39.534Z,37.47
2023-04-21T04:49:06.420Z,38.83
2023-04-21T04:51:33.792Z,39.75
2023-04-21T04:54:01.161Z,37.50
2023-04-21T04:59:11.075Z,40.60
2023-04-21T05:01:40.151Z,39.53
2023-04-21T05:04:07.350Z,39.33
2023-04-21T05:06:34.484Z,41.13
2023-04-21T05:09:01.569Z,41.63
2023-04-21T05:11:28.447Z,39.15
2023-04-21T05:13:55.690Z,45.65
2023-04-21T05:16:22.727Z,46.45
2023-04-21T05:18:54.159Z,43.53
2023-04-21T05:21:28.495Z,40.63
2023-04-21T05:23:59.556Z,43.50
2023-04-21T05:26:27.854Z,46.47
2023-04-21T05:28:58.866Z,42.97
2023-04-21T05:31:26.403Z,45.50
2023-04-21T05:33:53.908Z,45.20
2023-04-21T05:36:21.067Z,42.80
2023-04-21T05:38:48.184Z,45.88
2023-04-21T05:41:16.049Z,47.78
2023-04-21T05:43:42.954Z,45.22
2023-04-21T05:46:11.319Z,43.80
2023-04-21T05:48:38.647Z,45.20
2023-04-21T05:51:18.380Z,44.22
2023-04-21T05:53:46.630Z,44.75
2023-04-21T05:56:14.777Z,45.00
2023-04-21T05:58:41.964Z,47.85
2023-04-21T06:01:09.223Z,48.47
2023-04-21T06:03:37.165Z,48.55
2023-04-21T06:06:06.175Z,49.72
2023-04-21T06:08:33.610Z,52.72
2023-04-21T06:11:00.910Z,49.58
2023-04-21T06:13:27.912Z,51.95
2023-04-21T06:15:55.389Z,49.17
2023-04-21T06:18:22.494Z,47.28
2023-04-21T06:20:53.811Z,49.97
2023-04-21T06:23:21.657Z,53.28
2023-04-21T06:26:00.364Z,52.85
2023-04-21T06:28:27.323Z,53.55
2023-04-21T06:30:56.905Z,58.35
2023-04-21T06:33:23.959Z,50.80
2023-04-21T06:35:50.872Z,51.45
2023-04-21T06:38:17.753Z,50.40
2023-04-21T06:40:45.201Z,50.53
2023-04-21T06:43:12.174Z,51.53
2023-04-21T06:45:39.052Z,54.03
2023-04-21T06:48:06.339Z,54.45
2023-04-21T06:50:33.292Z,52.58
2023-04-21T06:53:00.276Z,59.20
2023-04-21T06:55:27.340Z,55.60
2023-04-21T06:57:54.349Z,55.17
2023-04-21T07:00:21.487Z,52.03
2023-04-21T07:02:50.468Z,49.28
2023-04-21T07:05:17.818Z,54.65
2023-04-21T07:07:44.861Z,50.80
2023-04-21T07:10:11.715Z,49.42
2023-04-21T07:12:38.621Z,47.65
2023-04-21T07:15:06.462Z,45.72
2023-04-21T07:17:33.346Z,46.47
2023-04-21T07:20:00.276Z,46.95
2023-04-21T07:22:27.301Z,42.80
2023-04-21T07:24:54.148Z,42.05
2023-04-21T07:27:21.025Z,41.42
2023-04-21T07:29:47.968Z,40.08
2023-04-21T07:32:14.776Z,41.08
2023-04-21T07:34:41.641Z,37.17
2023-04-21T07:37:08.485Z,38.75
2023-04-21T07:39:35.383Z,39.65
2023-04-21T07:42:02.368Z,37.63
2023-04-21T07:44:29.521Z,35.65
2023-04-21T07:46:56.526Z,35.85
2023-04-21T07:49:23.657Z,35.15
2023-04-21T07:51:50.881Z,34.10
2023-04-21T07:54:17.798Z,33.40
2023-04-21T07:56:44.695Z,33.75
2023-04-21T07:59:11.545Z,32.22
2023-04-21T08:01:38.590Z,31.17
2023-04-21T08:04:06.798Z,28.55
2023-04-21T08:06:33.885Z,31.52
2023-04-21T08:09:01.084Z,30.13
2023-04-21T08:11:28.695Z,30.75
2023-04-21T08:13:55.494Z,27.23
2023-04-21T08:16:22.574Z,26.75
2023-04-21T08:18:49.799Z,27.73
2023-04-21T08:21:16.847Z,28.63
2023-04-21T08:23:43.854Z,28.33
2023-04-21T08:26:11.032Z,29.10
2023-04-21T08:28:38.053Z,28.20
2023-04-21T08:31:05.432Z,24.58
2023-04-21T08:33:32.483Z,29.30
2023-04-21T08:36:05.791Z,29.13
2023-04-21T08:38:39.764Z,30.08
2023-04-21T08:41:07.663Z,25.95
2023-04-21T08:43:34.765Z,26.50
2023-04-21T08:46:06.812Z,33.75
2023-04-21T08:48:37.501Z,29.70
2023-04-21T08:51:06.857Z,27.45
2023-04-21T08:53:33.762Z,31.63
2023-04-21T08:56:10.732Z,29.35
2023-04-21T08:58:38.833Z,29.90
2023-04-21T09:01:05.903Z,27.98
2023-04-21T09:03:34.409Z,29.17
2023-04-21T09:06:41.293Z,33.28
2023-04-21T09:09:08.195Z,30.27
2023-04-21T09:11:35.207Z,28.50
2023-04-21T09:14:02.105Z,32.58
2023-04-21T09:16:33.393Z,29.58
2023-04-21T09:19:01.195Z,29.40
2023-04-21T09:21:32.020Z,25.92
2023-04-21T09:24:06.056Z,27.90
2023-04-21T09:26:35.189Z,26.65
2023-04-21T09:29:07.334Z,29.17
2023-04-21T09:31:36.452Z,26.75
2023-04-21T09:34:03.454Z,26.55
2023-04-21T09:36:32.213Z,27.25
2023-04-21T09:41:34.194Z,27.67
2023-04-21T09:44:05.001Z,27.38
2023-04-21T09:46:37.142Z,26.13
2023-04-21T09:49:05.801Z,40.78
2023-04-21T09:51:56.401Z,26.25
2023-04-21T09:54:29.512Z,29.80
2023-04-21T09:57:02.863Z,27.27
2023-04-21T09:59:36.743Z,22.20
2023-04-21T10:02:08.808Z,24.65
2023-04-21T10:04:39.037Z,21.95
2023-04-21T10:07:06.856Z,25.85
2023-04-21T10:09:41.626Z,31.23
2023-04-21T10:12:10.049Z,24.30
2023-04-21T10:14:37.212Z,26.00
2023-04-21T10:17:05.219Z,48.72
2023-04-21T10:19:36.391Z,34.53
2023-04-21T10:22:03.286Z,24.48
2023-04-21T10:24:31.385Z,28.10
2023-04-21T10:26:59.715Z,24.80
2023-04-21T10:29:40.291Z,24.35
2023-04-21T10:32:11.495Z,50.88
2023-04-21T10:34:39.260Z,25.92
2023-04-21T10:37:06.265Z,32.58
2023-04-21T10:39:37.439Z,20.27
2023-04-21T10:42:13.594Z,23.35
2023-04-21T10:44:58.585Z,18.17
2023-04-21T10:47:44.478Z,21.05
2023-04-21T10:50:23.983Z,16.20
2023-04-21T10:53:13.343Z,16.13
2023-04-21T10:55:42.443Z,19.70
2023-04-21T10:58:10.053Z,16.92
2023-04-21T11:00:41.070Z,16.65
2023-04-21T11:03:08.587Z,16.92
2023-04-21T11:05:41.516Z,19.38
2023-04-21T11:08:14.689Z,18.13
2023-04-21T11:10:57.400Z,19.70
2023-04-21T11:13:26.674Z,16.40
2023-04-21T11:16:07.642Z,17.80
2023-04-21T11:18:42.747Z,16.25
2023-04-21T11:21:24.518Z,19.98
2023-04-21T11:23:56.212Z,17.75
2023-04-21T11:26:40.209Z,17.58
2023-04-21T11:29:08.689Z,16.27
2023-04-21T11:31:37.735Z,14.50
2023-04-21T11:34:07.028Z,16.65
2023-04-21T11:36:39.672Z,17.08
2023-04-21T11:39:11.021Z,16.77
2023-04-21T11:41:45.449Z,14.95
2023-04-21T11:44:14.756Z,17.63
2023-04-21T11:46:46.745Z,17.05
2023-04-21T11:49:17.304Z,17.05
2023-04-21T11:51:46.854Z,18.10
2023-04-21T11:54:14.717Z,15.02
2023-04-21T11:56:43.426Z,15.63
2023-04-21T11:59:24.992Z,25.13
2023-04-21T12:01:54.642Z,15.10
2023-04-21T12:04:24.174Z,15.20
2023-04-21T12:07:02.885Z,14.77
2023-04-21T12:09:30.462Z,16.90
2023-04-21T12:11:59.174Z,15.07
2023-04-21T12:14:29.244Z,15.15
2023-04-21T12:16:58.103Z,17.77
2023-04-21T12:19:36.234Z,18.05
2023-04-21T12:22:08.555Z,16.27
2023-04-21T12:24:36.800Z,14.05
2023-04-21T12:27:04.989Z,16.23
2023-04-21T12:29:32.161Z,15.20
2023-04-21T12:31:59.380Z,14.95
2023-04-21T12:34:26.456Z,16.27
2023-04-21T12:36:53.366Z,13.48
2023-04-21T12:39:22.001Z,14.15
2023-04-21T12:41:49.047Z,14.27
2023-04-21T12:44:15.966Z,15.25
2023-04-21T12:46:42.790Z,13.38
2023-04-21T12:49:11.162Z,12.88
2023-04-21T12:51:38.228Z,12.90
2023-04-21T12:54:05.332Z,13.90
2023-04-21T12:56:32.404Z,21.08
2023-04-21T12:58:59.457Z,13.98
2023-04-21T13:01:26.487Z,10.80
2023-04-21T13:03:54.004Z,13.43
2023-04-21T13:06:21.088Z,13.02
2023-04-21T13:08:48.267Z,11.23
2023-04-21T13:11:15.426Z,10.38
2023-04-21T13:13:42.518Z,13.43
2023-04-21T13:16:09.405Z,13.57
2023-04-21T13:18:37.586Z,9.13
2023-04-21T13:21:04.600Z,9.48
2023-04-21T13:23:31.593Z,12.57
2023-04-21T13:25:58.802Z,11.55
2023-04-21T13:28:26.859Z,13.07
2023-04-21T13:30:54.447Z,11.82
2023-04-21T13:33:21.974Z,9.23
2023-04-21T13:35:49.519Z,9.93
2023-04-21T13:38:16.805Z,10.13
2023-04-21T13:40:43.679Z,9.60
2023-04-21T13:43:10.987Z,12.15
2023-04-21T13:45:37.948Z,13.68
2023-04-21T13:48:05.010Z,10.80
2023-04-21T13:50:32.477Z,17.13
2023-04-21T13:52:59.280Z,12.38
2023-04-21T13:55:26.333Z,8.07
2023-04-21T13:57:53.298Z,14.38
2023-04-21T14:00:20.373Z,8.50
2023-04-21T14:02:48.100Z,8.73
2023-04-21T14:05:17.241Z,7.50
2023-04-21T14:07:44.652Z,12.13
2023-04-21T14:10:14.651Z,9.50
2023-04-21T14:12:41.612Z,12.75
2023-04-21T14:15:09.050Z,10.07
2023-04-21T14:17:36.136Z,9.18
2023-04-21T14:20:04.130Z,8.85
2023-04-21T14:22:30.969Z,12.50
2023-04-21T14:24:58.017Z,9.77
2023-04-21T14:27:25.116Z,10.75
2023-04-21T14:29:52.544Z,11.77
2023-04-21T14:32:20.888Z,17.45
2023-04-21T14:34:48.287Z,11.73
2023-04-21T14:37:15.567Z,8.75
2023-04-21T14:39:42.551Z,18.48
2023-04-21T14:42:09.404Z,11.00
2023-04-21T14:44:36.216Z,11.18
2023-04-21T14:47:09.605Z,11.05
2023-04-21T14:49:38.426Z,7.07
2023-04-21T14:52:05.641Z,10.27
2023-04-21T14:54:32.757Z,9.60
2023-04-21T14:57:17.846Z,8.68
2023-04-21T14:59:46.869Z,7.85
2023-04-21T15:02:14.712Z,8.20
2023-04-21T15:04:42.976Z,11.35
2023-04-21T15:07:10.037Z,16.88
2023-04-21T15:09:37.469Z,14.95
2023-04-21T15:12:05.206Z,19.08
2023-04-21T15:14:32.542Z,13.77
2023-04-21T15:16:59.585Z,22.83
2023-04-21T15:19:26.865Z,14.40
2023-04-21T15:21:53.946Z,14.15
2023-04-21T15:24:21.091Z,20.63
2023-04-21T15:26:48.193Z,15.95
2023-04-21T15:29:15.317Z,16.58
2023-04-21T15:31:42.393Z,18.98
2023-04-21T15:34:09.635Z,16.05
2023-04-21T15:36:36.669Z,14.85
2023-04-21T15:39:04.079Z,13.45
2023-04-21T15:41:31.731Z,12.90
2023-04-21T15:43:59.975Z,13.27
2023-04-21T15:46:27.060Z,13.82
2023-04-21T15:48:53.962Z,11.90
2023-04-21T15:51:20.895Z,14.70
2023-04-21T15:53:49.351Z,12.85
2023-04-21T15:56:16.895Z,11.02
2023-04-21T15:58:44.108Z,12.40
2023-04-21T16:01:11.540Z,14.30
2023-04-21T16:03:40.291Z,14.80
2023-04-21T16:06:07.860Z,17.88
2023-04-21T16:08:34.861Z,17.52
2023-04-21T16:11:01.799Z,21.42
2023-04-21T16:13:29.574Z,16.45
2023-04-21T16:15:56.851Z,15.07
2023-04-21T16:18:24.168Z,13.45
2023-04-21T16:20:51.429Z,13.77
2023-04-21T16:23:18.794Z,13.95
2023-04-21T16:25:45.823Z,13.82
2023-04-21T16:28:12.816Z,11.75
2023-04-21T16:30:43.644Z,15.70
2023-04-21T16:33:11.519Z,14.43
2023-04-21T16:35:39.153Z,14.95
2023-04-21T16:38:06.512Z,14.60
2023-04-21T16:40:33.658Z,15.35
2023-04-21T16:43:03.276Z,12.75
2023-04-21T16:45:30.407Z,16.17
2023-04-21T16:47:57.816Z,11.52
2023-04-21T16:50:25.309Z,12.02
2023-04-21T16:52:52.162Z,12.68
2023-04-21T16:55:19.579Z,13.77
2023-04-21T16:57:46.454Z,12.93
2023-04-21T17:00:14.027Z,10.60
2023-04-21T17:02:42.685Z,13.63
2023-04-21T17:05:12.415Z,13.82
2023-04-21T17:07:41.198Z,12.15
2023-04-21T17:10:08.781Z,12.47
2023-04-21T17:12:35.920Z,17.25
2023-04-21T17:15:02.932Z,13.63
2023-04-21T17:17:42.727Z,12.27
2023-04-21T17:20:13.676Z,11.35
2023-04-21T17:22:41.284Z,14.80
2023-04-21T17:25:09.414Z,12.20
2023-04-21T17:27:38.416Z,15.25
2023-04-21T17:30:06.399Z,11.27
2023-04-21T17:32:34.266Z,12.60
2023-04-21T17:35:01.846Z,12.57
2023-04-21T17:37:30.262Z,13.05
2023-04-21T17:39:59.737Z,11.88
2023-04-21T17:42:29.256Z,11.52
2023-04-21T17:44:56.247Z,12.93
2023-04-21T17:47:23.470Z,11.30
2023-04-21T17:49:50.516Z,13.90
2023-04-21T17:52:17.583Z,10.07
2023-04-21T17:54:45.600Z,11.82
2023-04-21T17:57:12.512Z,13.07
2023-04-21T17:59:39.656Z,16.25
2023-04-21T18:02:07.450Z,14.93
2023-04-21T18:04:37.935Z,14.45
2023-04-21T18:07:05.178Z,17.98
2023-04-21T18:09:32.180Z,14.63
2023-04-21T18:11:59.091Z,14.38
2023-04-21T18:14:26.281Z,16.42
2023-04-21T18:16:53.938Z,14.07
2023-04-21T18:19:20.954Z,14.98
2023-04-21T18:21:48.240Z,22.90
2023-04-21T18:24:15.615Z,22.30
2023-04-21T18:26:43.900Z,28.92
2023-04-21T18:29:10.848Z,22.55
2023-04-21T18:31:37.924Z,14.38
2023-04-21T18:34:06.067Z,12.13
2023-04-21T18:36:33.766Z,12.80
2023-04-21T18:39:01.326Z,12.20
2023-04-21T18:41:28.302Z,15.23
2023-04-21T18:43:55.253Z,18.17
2023-04-21T18:46:22.271Z,13.40
2023-04-21T18:48:49.712Z,11.05
2023-04-21T18:51:17.349Z,12.38
2023-04-21T18:53:46.223Z,15.18
2023-04-21T18:56:13.189Z,14.40
2023-04-21T18:58:40.313Z,19.85
2023-04-21T19:01:08.058Z,17.80
2023-04-21T19:03:35.410Z,14.25
2023-04-21T19:06:03.340Z,11.73
2023-04-21T19:08:41.385Z,13.32
2023-04-21T19:11:11.218Z,15.38
2023-04-21T19:13:38.655Z,14.10
2023-04-21T19:16:06.290Z,12.82
2023-04-21T19:18:33.350Z,16.92
2023-04-21T19:21:00.407Z,18.00
2023-04-21T19:23:27.460Z,16.25
2023-04-21T19:25:57.574Z,15.15
2023-04-21T19:28:24.678Z,17.90
2023-04-21T19:30:51.635Z,22.58
2023-04-21T19:33:18.718Z,20.13
2023-04-21T19:35:46.215Z,16.75
2023-04-21T19:38:13.246Z,20.50
2023-04-21T19:40:42.247Z,19.45
2023-04-21T19:43:09.112Z,19.67
2023-04-21T19:45:36.693Z,20.85
2023-04-21T19:48:04.747Z,16.08
2023-04-21T19:50:32.375Z,15.23
2023-04-21T19:52:59.260Z,16.40
2023-04-21T19:55:27.348Z,15.30
2023-04-21T19:57:54.175Z,16.85
2023-04-21T20:00:21.230Z,15.82
2023-04-21T20:02:48.202Z,18.27
2023-04-21T20:05:15.652Z,17.05
2023-04-21T20:07:42.792Z,18.02
2023-04-21T20:10:10.532Z,17.38
2023-04-21T20:12:37.558Z,15.65
2023-04-21T20:15:05.686Z,14.70
2023-04-21T20:17:33.280Z,17.52
2023-04-21T20:20:00.252Z,20.30
2023-04-21T20:22:27.424Z,18.15
2023-04-21T20:24:54.394Z,18.60
2023-04-21T20:27:21.389Z,17.95
2023-04-21T20:29:48.375Z,27.08
2023-04-21T20:32:15.417Z,22.50
2023-04-21T20:34:42.681Z,15.60
2023-04-21T20:37:10.951Z,18.73
2023-04-21T20:39:38.598Z,15.77
2023-04-21T20:42:13.163Z,11.93
2023-04-21T20:44:42.853Z,14.20
2023-04-21T20:47:12.787Z,14.75
2023-04-21T20:49:40.505Z,12.23
2023-04-21T20:52:07.632Z,16.73
2023-04-21T20:54:35.015Z,18.20
2023-04-21T20:57:02.400Z,17.95
2023-04-21T20:59:29.598Z,17.02
2023-04-21T21:01:56.611Z,19.45
2023-04-21T21:04:24.111Z,16.25
2023-04-21T21:06:51.180Z,15.25
2023-04-21T21:09:19.120Z,13.95
2023-04-21T21:11:46.186Z,15.95
2023-04-21T21:14:13.326Z,12.73
2023-04-21T21:16:40.730Z,14.30
2023-04-21T21:19:07.870Z,14.10
2023-04-21T21:21:34.959Z,16.10
2023-04-21T21:24:01.917Z,13.68
2023-04-21T21:26:29.396Z,14.35
2023-04-21T21:28:56.760Z,11.90
2023-04-21T21:31:25.607Z,14.98
2023-04-21T21:33:52.764Z,19.33
2023-04-21T21:36:19.860Z,22.85
2023-04-21T21:38:46.960Z,19.50
2023-04-21T21:41:14.073Z,16.67
2023-04-21T21:43:41.277Z,14.55
2023-04-21T21:46:09.156Z,14.50
2023-04-21T21:48:36.282Z,14.10
2023-04-21T21:51:05.294Z,19.25
2023-04-21T21:53:32.846Z,14.68
2023-04-21T21:56:00.446Z,20.08
2023-04-21T21:58:27.596Z,17.50
2023-04-21T22:00:55.126Z,18.17
2023-04-21T22:03:22.511Z,17.58
2023-04-21T22:05:52.884Z,19.17
2023-04-21T22:08:19.788Z,15.55
2023-04-21T22:10:46.911Z,15.02
2023-04-21T22:13:13.999Z,17.58
2023-04-21T22:15:41.347Z,18.60
2023-04-21T22:18:09.776Z,20.85
2023-04-21T22:20:36.811Z,15.13
2023-04-21T22:23:04.510Z,17.83
2023-04-21T22:25:31.758Z,18.23
2023-04-21T22:27:58.799Z,23.27
2023-04-21T22:30:26.147Z,17.45
2023-04-21T22:32:53.195Z,15.32
2023-04-21T22:35:20.495Z,21.42
2023-04-21T22:37:47.319Z,22.17
2023-04-21T22:40:14.401Z,15.80
2023-04-21T22:42:41.316Z,15.57
2023-04-21T22:45:11.779Z,14.20
2023-04-21T22:47:38.626Z,16.38
2023-04-21T22:50:06.225Z,14.00
2023-04-21T22:52:33.101Z,16.38
2023-04-21T22:55:00.063Z,21.33
2023-04-21T22:57:27.057Z,21.40
2023-04-21T22:59:54.187Z,25.23
2023-04-21T23:02:21.658Z,22.63
2023-04-21T23:04:48.647Z,25.65
2023-04-21T23:07:15.484Z,23.95
2023-04-21T23:09:42.520Z,32.08
2023-04-21T23:12:09.448Z,33.17
2023-04-21T23:14:36.372Z,60.58
2023-04-21T23:17:03.336Z,37.83
2023-04-21T23:19:30.513Z,55.13
2023-04-21T23:21:57.368Z,43.17
2023-04-21T23:24:24.445Z,66.03
2023-04-21T23:26:51.584Z,72.07
2023-04-21T23:29:18.591Z,85.80
2023-04-21T23:31:45.699Z,164.82
2023-04-21T23:34:12.769Z,101.28
2023-04-21T23:36:39.560Z,85.93
2023-04-21T23:39:06.445Z,93.90
2023-04-21T23:41:33.605Z,30.63
2023-04-21T23:44:00.581Z,19.35
2023-04-21T23:46:27.609Z,53.78
2023-04-21T23:48:54.586Z,37.47
2023-04-21T23:51:22.126Z,98.75
2023-04-21T23:53:49.093Z,63.97
2023-04-21T23:56:15.920Z,44.97
2023-04-21T23:58:42.879Z,37.05
